sensor_id;sensor_type;location;lat;lon;timestamp;P1;durP1;ratioP1;P2;durP2;ratioP2
52620;SDS011;38515;53.160;6.990;2023-02-01T00:02:04;10.45;;;7.88;;
52620;SDS011;38515;53.160;6.990;2023-02-01T00:04:30;21.77;;;8.50;;
52620;SDS011;38515;53.160;6.990;2023-02-01T00:06:55;15.02;;;9.20;;
52620;SDS011;38515;53.160;6.990;2023-02-01T00:09:21;31.40;;;10.18;;
52620;SDS011;38515;53.160;6.990;2023-02-01T00:11:47;15.85;;;8.23;;
52620;SDS011;38515;53.160;6.990;2023-02-01T00:14:13;20.27;;;8.65;;
52620;SDS011;38515;53.160;6.990;2023-02-01T00:16:39;15.55;;;8.07;;
52620;SDS011;38515;53.160;6.990;2023-02-01T00:19:06;12.32;;;7.90;;
52620;SDS011;38515;53.160;6.990;2023-02-01T00:21:37;18.05;;;8.70;;
52620;SDS011;38515;53.160;6.990;2023-02-01T00:24:03;27.83;;;9.02;;
52620;SDS011;38515;53.160;6.990;2023-02-01T00:26:33;23.38;;;9.05;;
52620;SDS011;38515;53.160;6.990;2023-02-01T00:29:02;31.63;;;8.85;;
52620;SDS011;38515;53.160;6.990;2023-02-01T00:31:30;11.30;;;7.72;;
52620;SDS011;38515;53.160;6.990;2023-02-01T00:33:56;15.20;;;8.77;;
52620;SDS011;38515;53.160;6.990;2023-02-01T00:36:22;24.50;;;8.70;;
52620;SDS011;38515;53.160;6.990;2023-02-01T00:38:48;15.20;;;8.50;;
52620;SDS011;38515;53.160;6.990;2023-02-01T00:41:18;18.80;;;8.63;;
52620;SDS011;38515;53.160;6.990;2023-02-01T00:43:46;25.98;;;8.95;;
52620;SDS011;38515;53.160;6.990;2023-02-01T00:46:12;16.00;;;6.97;;
52620;SDS011;38515;53.160;6.990;2023-02-01T00:48:39;17.38;;;7.95;;
52620;SDS011;38515;53.160;6.990;2023-02-01T00:51:07;33.50;;;9.10;;
52620;SDS011;38515;53.160;6.990;2023-02-01T00:53:35;9.35;;;5.65;;
52620;SDS011;38515;53.160;6.990;2023-02-01T00:56:02;21.83;;;7.03;;
52620;SDS011;38515;53.160;6.990;2023-02-01T00:58:29;9.32;;;5.70;;
52620;SDS011;38515;53.160;6.990;2023-02-01T01:05:58;31.85;;;7.00;;
52620;SDS011;38515;53.160;6.990;2023-02-01T01:08:25;33.03;;;9.93;;
52620;SDS011;38515;53.160;6.990;2023-02-01T01:10:51;21.52;;;7.65;;
52620;SDS011;38515;53.160;6.990;2023-02-01T01:13:17;16.48;;;7.85;;
52620;SDS011;38515;53.160;6.990;2023-02-01T01:15:44;19.30;;;9.02;;
52620;SDS011;38515;53.160;6.990;2023-02-01T01:18:10;25.08;;;7.80;;
52620;SDS011;38515;53.160;6.990;2023-02-01T01:20:36;22.70;;;8.38;;
52620;SDS011;38515;53.160;6.990;2023-02-01T01:23:04;25.88;;;8.90;;
52620;SDS011;38515;53.160;6.990;2023-02-01T01:25:31;13.63;;;8.80;;
52620;SDS011;38515;53.160;6.990;2023-02-01T01:27:57;25.67;;;9.73;;
52620;SDS011;38515;53.160;6.990;2023-02-01T01:30:23;17.02;;;5.60;;
52620;SDS011;38515;53.160;6.990;2023-02-01T01:32:49;20.25;;;6.72;;
52620;SDS011;38515;53.160;6.990;2023-02-01T01:35:16;23.00;;;9.10;;
52620;SDS011;38515;53.160;6.990;2023-02-01T01:37:42;24.63;;;10.55;;
52620;SDS011;38515;53.160;6.990;2023-02-01T01:40:08;17.88;;;7.63;;
52620;SDS011;38515;53.160;6.990;2023-02-01T01:42:39;16.35;;;8.07;;
52620;SDS011;38515;53.160;6.990;2023-02-01T01:45:51;33.80;;;7.72;;
52620;SDS011;38515;53.160;6.990;2023-02-01T01:47:58;24.30;;;8.48;;
52620;SDS011;38515;53.160;6.990;2023-02-01T01:50:30;29.85;;;9.43;;
52620;SDS011;38515;53.160;6.990;2023-02-01T01:53:00;16.70;;;6.15;;
52620;SDS011;38515;53.160;6.990;2023-02-01T01:55:28;11.50;;;6.72;;
52620;SDS011;38515;53.160;6.990;2023-02-01T01:58:02;20.40;;;7.80;;
52620;SDS011;38515;53.160;6.990;2023-02-01T02:00:31;14.85;;;6.88;;
52620;SDS011;38515;53.160;6.990;2023-02-01T02:03:03;14.77;;;7.18;;
52620;SDS011;38515;53.160;6.990;2023-02-01T02:05:38;12.60;;;7.20;;
52620;SDS011;38515;53.160;6.990;2023-02-01T02:08:04;22.75;;;8.68;;
52620;SDS011;38515;53.160;6.990;2023-02-01T02:10:30;20.75;;;8.93;;
52620;SDS011;38515;53.160;6.990;2023-02-01T02:13:15;17.88;;;9.45;;
52620;SDS011;38515;53.160;6.990;2023-02-01T02:15:45;20.65;;;9.57;;
52620;SDS011;38515;53.160;6.990;2023-02-01T02:21:17;21.10;;;11.48;;
52620;SDS011;38515;53.160;6.990;2023-02-01T02:30:10;25.20;;;12.90;;
52620;SDS011;38515;53.160;6.990;2023-02-01T02:35:58;17.15;;;13.70;;
52620;SDS011;38515;53.160;6.990;2023-02-01T02:53:43;14.40;;;11.93;;
52620;SDS011;38515;53.160;6.990;2023-02-01T02:56:32;15.27;;;14.02;;
52620;SDS011;38515;53.160;6.990;2023-02-01T02:59:19;20.13;;;15.23;;
52620;SDS011;38515;53.160;6.990;2023-02-01T03:02:07;20.50;;;16.88;;
52620;SDS011;38515;53.160;6.990;2023-02-01T03:04:53;20.17;;;18.05;;
52620;SDS011;38515;53.160;6.990;2023-02-01T03:10:24;22.77;;;18.58;;
52620;SDS011;38515;53.160;6.990;2023-02-01T03:13:06;17.92;;;16.55;;
52620;SDS011;38515;53.160;6.990;2023-02-01T03:19:03;18.83;;;16.52;;
52620;SDS011;38515;53.160;6.990;2023-02-01T03:24:51;14.25;;;12.40;;
52620;SDS011;38515;53.160;6.990;2023-02-01T03:27:32;23.77;;;15.23;;
52620;SDS011;38515;53.160;6.990;2023-02-01T03:30:15;18.17;;;13.48;;
52620;SDS011;38515;53.160;6.990;2023-02-01T03:32:52;13.15;;;11.80;;
52620;SDS011;38515;53.160;6.990;2023-02-01T03:38:20;13.43;;;9.77;;
52620;SDS011;38515;53.160;6.990;2023-02-01T03:40:57;36.83;;;13.07;;
52620;SDS011;38515;53.160;6.990;2023-02-01T03:43:52;17.92;;;9.82;;
52620;SDS011;38515;53.160;6.990;2023-02-01T03:46:21;15.65;;;8.20;;
52620;SDS011;38515;53.160;6.990;2023-02-01T03:48:57;15.10;;;9.27;;
52620;SDS011;38515;53.160;6.990;2023-02-01T03:51:31;12.82;;;7.93;;
52620;SDS011;38515;53.160;6.990;2023-02-01T03:53:59;25.80;;;7.63;;
52620;SDS011;38515;53.160;6.990;2023-02-01T03:56:29;21.27;;;9.07;;
52620;SDS011;38515;53.160;6.990;2023-02-01T03:58:58;18.58;;;8.02;;
52620;SDS011;38515;53.160;6.990;2023-02-01T04:01:25;25.15;;;9.52;;
52620;SDS011;38515;53.160;6.990;2023-02-01T04:03:52;17.10;;;6.63;;
52620;SDS011;38515;53.160;6.990;2023-02-01T04:06:18;14.65;;;7.72;;
52620;SDS011;38515;53.160;6.990;2023-02-01T04:08:44;20.20;;;7.70;;
52620;SDS011;38515;53.160;6.990;2023-02-01T04:11:10;22.85;;;9.60;;
52620;SDS011;38515;53.160;6.990;2023-02-01T04:13:36;30.63;;;11.07;;
52620;SDS011;38515;53.160;6.990;2023-02-01T04:16:02;21.35;;;9.95;;
52620;SDS011;38515;53.160;6.990;2023-02-01T04:18:28;22.10;;;9.00;;
52620;SDS011;38515;53.160;6.990;2023-02-01T04:20:54;17.23;;;11.52;;
52620;SDS011;38515;53.160;6.990;2023-02-01T04:23:20;28.83;;;16.52;;
52620;SDS011;38515;53.160;6.990;2023-02-01T04:25:45;24.83;;;15.35;;
52620;SDS011;38515;53.160;6.990;2023-02-01T04:28:11;15.05;;;13.57;;
52620;SDS011;38515;53.160;6.990;2023-02-01T04:30:38;20.25;;;13.27;;
52620;SDS011;38515;53.160;6.990;2023-02-01T04:33:04;25.33;;;9.43;;
52620;SDS011;38515;53.160;6.990;2023-02-01T04:35:33;16.88;;;12.25;;
52620;SDS011;38515;53.160;6.990;2023-02-01T04:37:59;25.08;;;12.70;;
52620;SDS011;38515;53.160;6.990;2023-02-01T04:40:26;16.60;;;13.05;;
52620;SDS011;38515;53.160;6.990;2023-02-01T04:42:52;34.70;;;10.95;;
52620;SDS011;38515;53.160;6.990;2023-02-01T04:45:18;30.55;;;12.30;;
52620;SDS011;38515;53.160;6.990;2023-02-01T04:47:44;16.60;;;10.90;;
52620;SDS011;38515;53.160;6.990;2023-02-01T04:50:10;17.05;;;11.10;;
52620;SDS011;38515;53.160;6.990;2023-02-01T04:52:36;12.73;;;10.68;;
52620;SDS011;38515;53.160;6.990;2023-02-01T04:55:03;27.83;;;12.05;;
52620;SDS011;38515;53.160;6.990;2023-02-01T04:57:29;16.20;;;10.63;;
52620;SDS011;38515;53.160;6.990;2023-02-01T04:59:55;19.35;;;9.45;;
52620;SDS011;38515;53.160;6.990;2023-02-01T05:02:21;20.50;;;8.70;;
52620;SDS011;38515;53.160;6.990;2023-02-01T05:04:46;21.58;;;9.77;;
52620;SDS011;38515;53.160;6.990;2023-02-01T05:07:12;22.20;;;9.88;;
52620;SDS011;38515;53.160;6.990;2023-02-01T05:09:38;42.05;;;10.23;;
52620;SDS011;38515;53.160;6.990;2023-02-01T05:12:04;18.58;;;10.07;;
52620;SDS011;38515;53.160;6.990;2023-02-01T05:14:49;21.73;;;8.35;;
52620;SDS011;38515;53.160;6.990;2023-02-01T05:17:15;14.20;;;7.78;;
52620;SDS011;38515;53.160;6.990;2023-02-01T05:19:41;20.23;;;7.65;;
52620;SDS011;38515;53.160;6.990;2023-02-01T05:22:07;13.55;;;7.78;;
52620;SDS011;38515;53.160;6.990;2023-02-01T05:24:33;22.13;;;9.18;;
52620;SDS011;38515;53.160;6.990;2023-02-01T05:26:58;13.75;;;7.47;;
52620;SDS011;38515;53.160;6.990;2023-02-01T05:29:24;16.92;;;8.88;;
52620;SDS011;38515;53.160;6.990;2023-02-01T05:31:50;22.58;;;7.40;;
52620;SDS011;38515;53.160;6.990;2023-02-01T05:34:16;13.82;;;8.90;;
52620;SDS011;38515;53.160;6.990;2023-02-01T05:36:42;9.85;;;7.15;;
52620;SDS011;38515;53.160;6.990;2023-02-01T05:39:08;20.17;;;8.70;;
52620;SDS011;38515;53.160;6.990;2023-02-01T05:41:35;12.82;;;7.85;;
52620;SDS011;38515;53.160;6.990;2023-02-01T05:44:01;25.83;;;7.85;;
52620;SDS011;38515;53.160;6.990;2023-02-01T05:46:27;16.60;;;7.82;;
52620;SDS011;38515;53.160;6.990;2023-02-01T05:48:53;15.82;;;9.85;;
52620;SDS011;38515;53.160;6.990;2023-02-01T05:51:19;16.40;;;8.80;;
52620;SDS011;38515;53.160;6.990;2023-02-01T05:53:45;15.10;;;9.50;;
52620;SDS011;38515;53.160;6.990;2023-02-01T05:56:11;19.25;;;10.00;;
52620;SDS011;38515;53.160;6.990;2023-02-01T05:58:37;9.93;;;7.50;;
52620;SDS011;38515;53.160;6.990;2023-02-01T06:01:03;23.98;;;9.70;;
52620;SDS011;38515;53.160;6.990;2023-02-01T06:03:29;21.08;;;10.20;;
52620;SDS011;38515;53.160;6.990;2023-02-01T06:05:55;20.50;;;8.18;;
52620;SDS011;38515;53.160;6.990;2023-02-01T06:08:21;13.27;;;7.55;;
52620;SDS011;38515;53.160;6.990;2023-02-01T06:10:49;25.10;;;8.07;;
52620;SDS011;38515;53.160;6.990;2023-02-01T06:13:15;27.08;;;7.93;;
52620;SDS011;38515;53.160;6.990;2023-02-01T06:15:41;12.57;;;7.90;;
52620;SDS011;38515;53.160;6.990;2023-02-01T06:18:09;22.88;;;7.97;;
52620;SDS011;38515;53.160;6.990;2023-02-01T06:20:35;19.55;;;7.18;;
52620;SDS011;38515;53.160;6.990;2023-02-01T06:23:00;18.65;;;8.85;;
52620;SDS011;38515;53.160;6.990;2023-02-01T06:25:26;20.92;;;9.45;;
52620;SDS011;38515;53.160;6.990;2023-02-01T06:27:52;14.65;;;7.50;;
52620;SDS011;38515;53.160;6.990;2023-02-01T06:30:18;10.25;;;6.43;;
52620;SDS011;38515;53.160;6.990;2023-02-01T06:32:44;23.00;;;6.90;;
52620;SDS011;38515;53.160;6.990;2023-02-01T06:35:18;17.90;;;8.10;;
52620;SDS011;38515;53.160;6.990;2023-02-01T06:37:44;11.25;;;6.13;;
52620;SDS011;38515;53.160;6.990;2023-02-01T06:40:10;20.90;;;8.30;;
52620;SDS011;38515;53.160;6.990;2023-02-01T06:42:37;14.07;;;7.35;;
52620;SDS011;38515;53.160;6.990;2023-02-01T06:45:03;25.67;;;9.30;;
52620;SDS011;38515;53.160;6.990;2023-02-01T06:47:29;22.13;;;8.90;;
52620;SDS011;38515;53.160;6.990;2023-02-01T06:49:55;21.90;;;10.50;;
52620;SDS011;38515;53.160;6.990;2023-02-01T06:52:20;12.02;;;9.20;;
52620;SDS011;38515;53.160;6.990;2023-02-01T06:54:46;18.00;;;11.50;;
52620;SDS011;38515;53.160;6.990;2023-02-01T06:57:12;15.45;;;10.90;;
52620;SDS011;38515;53.160;6.990;2023-02-01T06:59:39;25.77;;;10.98;;
52620;SDS011;38515;53.160;6.990;2023-02-01T07:02:05;32.13;;;9.25;;
52620;SDS011;38515;53.160;6.990;2023-02-01T07:04:34;28.67;;;14.30;;
52620;SDS011;38515;53.160;6.990;2023-02-01T07:07:00;18.75;;;10.50;;
52620;SDS011;38515;53.160;6.990;2023-02-01T07:09:26;23.20;;;13.10;;
52620;SDS011;38515;53.160;6.990;2023-02-01T07:11:52;22.90;;;10.85;;
52620;SDS011;38515;53.160;6.990;2023-02-01T07:14:17;21.33;;;13.05;;
52620;SDS011;38515;53.160;6.990;2023-02-01T07:16:44;24.42;;;11.15;;
52620;SDS011;38515;53.160;6.990;2023-02-01T07:19:09;18.75;;;10.52;;
52620;SDS011;38515;53.160;6.990;2023-02-01T07:21:35;15.68;;;8.88;;
52620;SDS011;38515;53.160;6.990;2023-02-01T07:24:01;11.63;;;9.55;;
52620;SDS011;38515;53.160;6.990;2023-02-01T07:26:27;21.13;;;8.23;;
52620;SDS011;38515;53.160;6.990;2023-02-01T07:28:53;12.82;;;6.68;;
52620;SDS011;38515;53.160;6.990;2023-02-01T07:31:19;18.65;;;9.90;;
52620;SDS011;38515;53.160;6.990;2023-02-01T07:33:47;18.45;;;7.30;;
52620;SDS011;38515;53.160;6.990;2023-02-01T07:36:16;21.13;;;8.40;;
52620;SDS011;38515;53.160;6.990;2023-02-01T07:38:43;16.45;;;6.43;;
52620;SDS011;38515;53.160;6.990;2023-02-01T07:41:09;12.82;;;7.15;;
52620;SDS011;38515;53.160;6.990;2023-02-01T07:43:35;24.05;;;8.55;;
52620;SDS011;38515;53.160;6.990;2023-02-01T07:46:02;23.13;;;8.48;;
52620;SDS011;38515;53.160;6.990;2023-02-01T07:48:30;11.85;;;7.45;;
52620;SDS011;38515;53.160;6.990;2023-02-01T07:51:00;13.50;;;7.20;;
52620;SDS011;38515;53.160;6.990;2023-02-01T07:53:34;28.25;;;8.38;;
52620;SDS011;38515;53.160;6.990;2023-02-01T07:56:00;20.25;;;8.25;;
52620;SDS011;38515;53.160;6.990;2023-02-01T07:58:28;17.08;;;8.40;;
52620;SDS011;38515;53.160;6.990;2023-02-01T08:00:54;31.75;;;9.80;;
52620;SDS011;38515;53.160;6.990;2023-02-01T08:03:39;20.95;;;7.35;;
52620;SDS011;38515;53.160;6.990;2023-02-01T08:06:05;22.40;;;6.55;;
52620;SDS011;38515;53.160;6.990;2023-02-01T08:08:32;25.17;;;9.00;;
52620;SDS011;38515;53.160;6.990;2023-02-01T08:10:58;33.90;;;9.13;;
52620;SDS011;38515;53.160;6.990;2023-02-01T08:13:32;11.50;;;6.65;;
52620;SDS011;38515;53.160;6.990;2023-02-01T08:16:00;31.42;;;9.40;;
52620;SDS011;38515;53.160;6.990;2023-02-01T08:18:28;16.38;;;5.75;;
52620;SDS011;38515;53.160;6.990;2023-02-01T08:20:54;18.65;;;8.07;;
52620;SDS011;38515;53.160;6.990;2023-02-01T08:23:20;21.73;;;8.63;;
52620;SDS011;38515;53.160;6.990;2023-02-01T08:25:47;23.90;;;8.52;;
52620;SDS011;38515;53.160;6.990;2023-02-01T08:28:14;11.90;;;5.65;;
52620;SDS011;38515;53.160;6.990;2023-02-01T08:30:40;15.00;;;6.53;;
52620;SDS011;38515;53.160;6.990;2023-02-01T08:33:09;31.23;;;9.43;;
52620;SDS011;38515;53.160;6.990;2023-02-01T08:35:36;18.70;;;7.57;;
52620;SDS011;38515;53.160;6.990;2023-02-01T08:38:03;13.10;;;6.50;;
52620;SDS011;38515;53.160;6.990;2023-02-01T08:40:29;30.65;;;8.18;;
52620;SDS011;38515;53.160;6.990;2023-02-01T08:42:56;26.15;;;6.97;;
52620;SDS011;38515;53.160;6.990;2023-02-01T08:45:23;23.63;;;7.22;;
52620;SDS011;38515;53.160;6.990;2023-02-01T08:47:51;20.63;;;8.98;;
52620;SDS011;38515;53.160;6.990;2023-02-01T08:50:17;25.02;;;7.18;;
52620;SDS011;38515;53.160;6.990;2023-02-01T08:52:44;7.93;;;6.35;;
52620;SDS011;38515;53.160;6.990;2023-02-01T08:55:11;21.63;;;9.93;;
52620;SDS011;38515;53.160;6.990;2023-02-01T08:57:37;22.98;;;7.75;;
52620;SDS011;38515;53.160;6.990;2023-02-01T09:00:04;26.42;;;8.45;;
52620;SDS011;38515;53.160;6.990;2023-02-01T09:02:32;13.88;;;6.07;;
52620;SDS011;38515;53.160;6.990;2023-02-01T09:04:58;20.42;;;8.07;;
52620;SDS011;38515;53.160;6.990;2023-02-01T09:07:24;14.60;;;7.40;;
52620;SDS011;38515;53.160;6.990;2023-02-01T09:09:49;34.80;;;9.38;;
52620;SDS011;38515;53.160;6.990;2023-02-01T09:12:15;16.25;;;7.53;;
52620;SDS011;38515;53.160;6.990;2023-02-01T09:14:41;20.20;;;8.80;;
52620;SDS011;38515;53.160;6.990;2023-02-01T09:17:07;16.63;;;7.97;;
52620;SDS011;38515;53.160;6.990;2023-02-01T09:19:33;34.40;;;7.22;;
52620;SDS011;38515;53.160;6.990;2023-02-01T09:21:59;20.10;;;7.88;;
52620;SDS011;38515;53.160;6.990;2023-02-01T09:24:25;11.93;;;7.00;;
52620;SDS011;38515;53.160;6.990;2023-02-01T09:26:51;12.77;;;5.97;;
52620;SDS011;38515;53.160;6.990;2023-02-01T09:29:17;15.48;;;6.90;;
52620;SDS011;38515;53.160;6.990;2023-02-01T09:31:44;28.08;;;7.72;;
52620;SDS011;38515;53.160;6.990;2023-02-01T09:34:10;24.65;;;8.30;;
52620;SDS011;38515;53.160;6.990;2023-02-01T09:36:36;16.48;;;7.60;;
52620;SDS011;38515;53.160;6.990;2023-02-01T09:39:02;30.15;;;8.30;;
52620;SDS011;38515;53.160;6.990;2023-02-01T09:42:15;21.58;;;8.48;;
52620;SDS011;38515;53.160;6.990;2023-02-01T09:46:54;21.35;;;9.77;;
52620;SDS011;38515;53.160;6.990;2023-02-01T09:49:29;11.77;;;7.13;;
52620;SDS011;38515;53.160;6.990;2023-02-01T09:51:58;22.52;;;7.55;;
52620;SDS011;38515;53.160;6.990;2023-02-01T09:57:37;22.48;;;6.30;;
52620;SDS011;38515;53.160;6.990;2023-02-01T10:00:14;12.13;;;6.78;;
52620;SDS011;38515;53.160;6.990;2023-02-01T10:02:46;18.52;;;7.65;;
52620;SDS011;38515;53.160;6.990;2023-02-01T10:05:14;18.00;;;7.65;;
52620;SDS011;38515;53.160;6.990;2023-02-01T10:13:05;12.07;;;7.00;;
52620;SDS011;38515;53.160;6.990;2023-02-01T10:18:56;17.27;;;6.53;;
52620;SDS011;38515;53.160;6.990;2023-02-01T10:21:51;20.38;;;7.50;;
52620;SDS011;38515;53.160;6.990;2023-02-01T10:24:36;9.93;;;7.40;;
52620;SDS011;38515;53.160;6.990;2023-02-01T10:27:14;22.00;;;10.27;;
52620;SDS011;38515;53.160;6.990;2023-02-01T10:30:05;34.72;;;9.30;;
52620;SDS011;38515;53.160;6.990;2023-02-01T10:32:41;14.65;;;8.05;;
52620;SDS011;38515;53.160;6.990;2023-02-01T10:37:36;12.98;;;8.48;;
52620;SDS011;38515;53.160;6.990;2023-02-01T10:40:14;11.80;;;10.00;;
52620;SDS011;38515;53.160;6.990;2023-02-01T10:42:40;31.08;;;8.48;;
52620;SDS011;38515;53.160;6.990;2023-02-01T10:45:11;13.65;;;9.57;;
52620;SDS011;38515;53.160;6.990;2023-02-01T10:47:41;21.02;;;8.48;;
52620;SDS011;38515;53.160;6.990;2023-02-01T10:52:52;16.70;;;9.05;;
52620;SDS011;38515;53.160;6.990;2023-02-01T10:58:02;16.40;;;8.57;;
52620;SDS011;38515;53.160;6.990;2023-02-01T11:00:39;17.70;;;10.55;;
52620;SDS011;38515;53.160;6.990;2023-02-01T11:06:03;9.05;;;8.32;;
52620;SDS011;38515;53.160;6.990;2023-02-01T11:08:54;14.73;;;6.63;;
52620;SDS011;38515;53.160;6.990;2023-02-01T11:11:25;19.27;;;9.40;;
52620;SDS011;38515;53.160;6.990;2023-02-01T11:13:56;12.65;;;9.43;;
52620;SDS011;38515;53.160;6.990;2023-02-01T11:16:37;9.32;;;8.18;;
52620;SDS011;38515;53.160;6.990;2023-02-01T11:19:04;28.13;;;12.30;;
52620;SDS011;38515;53.160;6.990;2023-02-01T11:21:31;21.77;;;10.85;;
52620;SDS011;38515;53.160;6.990;2023-02-01T11:24:03;19.80;;;7.93;;
52620;SDS011;38515;53.160;6.990;2023-02-01T11:26:30;24.35;;;6.53;;
52620;SDS011;38515;53.160;6.990;2023-02-01T11:28:59;15.00;;;6.55;;
52620;SDS011;38515;53.160;6.990;2023-02-01T11:31:34;10.82;;;6.20;;
52620;SDS011;38515;53.160;6.990;2023-02-01T11:34:44;17.15;;;7.05;;
52620;SDS011;38515;53.160;6.990;2023-02-01T11:36:52;3.05;;;1.70;;
52620;SDS011;38515;53.160;6.990;2023-02-01T11:39:26;3.00;;;2.90;;
52620;SDS011;38515;53.160;6.990;2023-02-01T11:42:05;2.20;;;2.10;;
52620;SDS011;38515;53.160;6.990;2023-02-01T11:44:38;3.67;;;1.52;;
52620;SDS011;38515;53.160;6.990;2023-02-01T11:47:40;1.63;;;1.50;;
52620;SDS011;38515;53.160;6.990;2023-02-01T12:23:26;12.57;;;7.70;;
52620;SDS011;38515;53.160;6.990;2023-02-01T12:29:18;6.35;;;5.97;;
52620;SDS011;38515;53.160;6.990;2023-02-01T12:34:50;5.10;;;4.80;;
52620;SDS011;38515;53.160;6.990;2023-02-01T12:40:23;7.10;;;6.22;;
52620;SDS011;38515;53.160;6.990;2023-02-01T12:43:15;6.55;;;6.13;;
52620;SDS011;38515;53.160;6.990;2023-02-01T12:45:53;10.93;;;7.32;;
52620;SDS011;38515;53.160;6.990;2023-02-01T12:56:34;6.95;;;5.50;;
52620;SDS011;38515;53.160;6.990;2023-02-01T12:59:09;12.10;;;5.47;;
52620;SDS011;38515;53.160;6.990;2023-02-01T13:07:21;14.85;;;6.55;;
52620;SDS011;38515;53.160;6.990;2023-02-01T13:09:54;33.05;;;9.50;;
52620;SDS011;38515;53.160;6.990;2023-02-01T13:12:38;22.40;;;6.25;;
52620;SDS011;38515;53.160;6.990;2023-02-01T13:15:29;24.48;;;4.82;;
52620;SDS011;38515;53.160;6.990;2023-02-01T13:18:02;25.60;;;7.22;;
52620;SDS011;38515;53.160;6.990;2023-02-01T13:20:31;28.35;;;6.75;;
52620;SDS011;38515;53.160;6.990;2023-02-01T13:23:05;32.05;;;9.70;;
52620;SDS011;38515;53.160;6.990;2023-02-01T13:25:40;37.10;;;8.98;;
52620;SDS011;38515;53.160;6.990;2023-02-01T13:28:14;23.20;;;9.60;;
52620;SDS011;38515;53.160;6.990;2023-02-01T13:44:58;15.88;;;11.30;;
52620;SDS011;38515;53.160;6.990;2023-02-01T13:47:48;14.35;;;8.50;;
52620;SDS011;38515;53.160;6.990;2023-02-01T13:52:54;33.05;;;9.07;;
52620;SDS011;38515;53.160;6.990;2023-02-01T13:55:24;18.60;;;8.40;;
52620;SDS011;38515;53.160;6.990;2023-02-01T13:57:52;20.13;;;8.23;;
52620;SDS011;38515;53.160;6.990;2023-02-01T14:00:34;20.02;;;8.25;;
52620;SDS011;38515;53.160;6.990;2023-02-01T14:10:51;13.57;;;9.40;;
52620;SDS011;38515;53.160;6.990;2023-02-01T14:13:30;22.13;;;7.65;;
52620;SDS011;38515;53.160;6.990;2023-02-01T14:23:43;20.58;;;7.57;;
52620;SDS011;38515;53.160;6.990;2023-02-01T14:26:15;14.80;;;7.53;;
52620;SDS011;38515;53.160;6.990;2023-02-01T14:32:00;27.90;;;7.28;;
52620;SDS011;38515;53.160;6.990;2023-02-01T14:34:33;39.00;;;10.27;;
52620;SDS011;38515;53.160;6.990;2023-02-01T14:37:08;16.77;;;7.85;;
52620;SDS011;38515;53.160;6.990;2023-02-01T14:40:05;28.38;;;8.43;;
52620;SDS011;38515;53.160;6.990;2023-02-01T14:42:47;20.17;;;7.85;;
52620;SDS011;38515;53.160;6.990;2023-02-01T14:53:18;24.85;;;7.70;;
52620;SDS011;38515;53.160;6.990;2023-02-01T15:00:58;27.23;;;8.52;;
52620;SDS011;38515;53.160;6.990;2023-02-01T15:05:56;26.98;;;9.20;;
52620;SDS011;38515;53.160;6.990;2023-02-01T15:08:28;19.20;;;7.85;;
52620;SDS011;38515;53.160;6.990;2023-02-01T15:10:57;8.65;;;6.70;;
52620;SDS011;38515;53.160;6.990;2023-02-01T15:13:28;17.05;;;6.78;;
52620;SDS011;38515;53.160;6.990;2023-02-01T15:16:11;22.92;;;8.23;;
52620;SDS011;38515;53.160;6.990;2023-02-01T15:18:39;14.52;;;7.47;;
52620;SDS011;38515;53.160;6.990;2023-02-01T15:21:12;19.10;;;9.80;;
52620;SDS011;38515;53.160;6.990;2023-02-01T15:24:12;23.27;;;8.98;;
52620;SDS011;38515;53.160;6.990;2023-02-01T15:26:43;32.22;;;9.95;;
52620;SDS011;38515;53.160;6.990;2023-02-01T15:29:12;27.08;;;8.05;;
52620;SDS011;38515;53.160;6.990;2023-02-01T15:31:40;20.27;;;8.30;;
52620;SDS011;38515;53.160;6.990;2023-02-01T15:34:09;22.73;;;7.20;;
52620;SDS011;38515;53.160;6.990;2023-02-01T15:36:36;19.23;;;4.85;;
52620;SDS011;38515;53.160;6.990;2023-02-01T15:39:16;22.58;;;6.20;;
52620;SDS011;38515;53.160;6.990;2023-02-01T15:42:27;20.17;;;7.60;;
52620;SDS011;38515;53.160;6.990;2023-02-01T15:44:40;19.55;;;8.07;;
52620;SDS011;38515;53.160;6.990;2023-02-01T15:47:11;10.82;;;8.73;;
52620;SDS011;38515;53.160;6.990;2023-02-01T15:49:43;28.42;;;8.23;;
52620;SDS011;38515;53.160;6.990;2023-02-01T15:54:57;11.90;;;7.50;;
52620;SDS011;38515;53.160;6.990;2023-02-01T15:57:27;25.50;;;8.70;;
52620;SDS011;38515;53.160;6.990;2023-02-01T16:00:34;13.52;;;6.00;;
52620;SDS011;38515;53.160;6.990;2023-02-01T16:02:57;23.80;;;8.20;;
52620;SDS011;38515;53.160;6.990;2023-02-01T16:05:33;12.27;;;7.15;;
52620;SDS011;38515;53.160;6.990;2023-02-01T16:08:16;31.23;;;8.48;;
52620;SDS011;38515;53.160;6.990;2023-02-01T16:10:54;20.85;;;8.18;;
52620;SDS011;38515;53.160;6.990;2023-02-01T16:13:27;22.33;;;10.00;;
52620;SDS011;38515;53.160;6.990;2023-02-01T16:15:53;26.45;;;9.45;;
52620;SDS011;38515;53.160;6.990;2023-02-01T16:18:18;20.52;;;8.35;;
52620;SDS011;38515;53.160;6.990;2023-02-01T16:20:47;20.27;;;9.57;;
52620;SDS011;38515;53.160;6.990;2023-02-01T16:23:13;26.73;;;8.68;;
52620;SDS011;38515;53.160;6.990;2023-02-01T16:25:39;15.10;;;7.30;;
52620;SDS011;38515;53.160;6.990;2023-02-01T16:28:05;6.80;;;6.25;;
52620;SDS011;38515;53.160;6.990;2023-02-01T16:30:32;28.60;;;8.00;;
52620;SDS011;38515;53.160;6.990;2023-02-01T16:32:59;15.63;;;9.70;;
52620;SDS011;38515;53.160;6.990;2023-02-01T16:35:33;15.38;;;7.50;;
52620;SDS011;38515;53.160;6.990;2023-02-01T16:38:09;24.65;;;8.73;;
52620;SDS011;38515;53.160;6.990;2023-02-01T16:40:38;13.63;;;7.55;;
52620;SDS011;38515;53.160;6.990;2023-02-01T16:43:10;14.88;;;7.38;;
52620;SDS011;38515;53.160;6.990;2023-02-01T16:45:42;14.20;;;7.50;;
52620;SDS011;38515;53.160;6.990;2023-02-01T16:48:23;27.40;;;9.52;;
52620;SDS011;38515;53.160;6.990;2023-02-01T16:50:57;14.27;;;6.50;;
52620;SDS011;38515;53.160;6.990;2023-02-01T16:53:27;28.13;;;7.25;;
52620;SDS011;38515;53.160;6.990;2023-02-01T16:55:54;10.35;;;6.07;;
52620;SDS011;38515;53.160;6.990;2023-02-01T16:58:23;17.88;;;6.90;;
52620;SDS011;38515;53.160;6.990;2023-02-01T17:00:50;17.77;;;6.70;;
52620;SDS011;38515;53.160;6.990;2023-02-01T17:03:17;18.52;;;6.20;;
52620;SDS011;38515;53.160;6.990;2023-02-01T17:05:48;20.75;;;8.07;;
52620;SDS011;38515;53.160;6.990;2023-02-01T17:11:00;15.02;;;6.20;;
52620;SDS011;38515;53.160;6.990;2023-02-01T17:13:26;14.88;;;8.52;;
52620;SDS011;38515;53.160;6.990;2023-02-01T17:15:53;30.38;;;7.97;;
52620;SDS011;38515;53.160;6.990;2023-02-01T17:18:29;13.52;;;5.43;;
52620;SDS011;38515;53.160;6.990;2023-02-01T17:20:59;16.50;;;7.68;;
52620;SDS011;38515;53.160;6.990;2023-02-01T17:23:27;27.20;;;8.20;;
52620;SDS011;38515;53.160;6.990;2023-02-01T17:25:54;11.48;;;6.95;;
52620;SDS011;38515;53.160;6.990;2023-02-01T17:28:21;12.80;;;5.68;;
52620;SDS011;38515;53.160;6.990;2023-02-01T17:30:47;9.85;;;7.10;;
52620;SDS011;38515;53.160;6.990;2023-02-01T17:33:21;17.35;;;6.68;;
52620;SDS011;38515;53.160;6.990;2023-02-01T17:35:50;15.43;;;6.15;;
52620;SDS011;38515;53.160;6.990;2023-02-01T17:38:18;22.20;;;7.05;;
52620;SDS011;38515;53.160;6.990;2023-02-01T17:40:44;15.25;;;7.70;;
52620;SDS011;38515;53.160;6.990;2023-02-01T17:43:14;16.30;;;5.75;;
52620;SDS011;38515;53.160;6.990;2023-02-01T17:45:49;12.07;;;7.43;;
52620;SDS011;38515;53.160;6.990;2023-02-01T17:48:19;24.25;;;9.13;;
52620;SDS011;38515;53.160;6.990;2023-02-01T17:50:46;31.58;;;10.15;;
52620;SDS011;38515;53.160;6.990;2023-02-01T17:53:16;8.02;;;6.72;;
52620;SDS011;38515;53.160;6.990;2023-02-01T17:55:44;20.75;;;6.95;;